Time;durP1;ratioP1;P1;durP2;ratioP2;P2;SDS_P1;SDS_P2;PMS_P1;PMS_P2;Temp;Humidity;BMP_temperature;BMP_pressure;BME280_temperature;BME280_humidity;BME280_pressure;Samples;Min_cycle;Max_cycle;Signal;HPM_P1;HPM_P2
2022/04/04 00:01:15;;;;;;;19.52;9.85;;;2.30;99.90;;;;;;4976152;28;20147;-77
2022/04/04 00:03:41;;;;;;;18.70;10.10;;;2.30;99.90;;;;;;4976080;28;20479;-78
2022/04/04 00:06:07;;;;;;;18.02;9.40;;;2.30;99.90;;;;;;4976137;28;20081;-78
2022/04/04 00:08:33;;;;;;;20.75;10.73;;;2.30;99.90;;;;;;4960996;28;20518;-78
2022/04/04 00:11:00;;;;;;;16.38;9.68;;;2.30;99.90;;;;;;4939276;29;20052;-78
2022/04/04 00:13:27;;;;;;;18.83;9.82;;;2.30;99.90;;;;;;4956872;29;20034;-78
2022/04/04 00:15:53;;;;;;;20.45;10.77;;;2.40;99.90;;;;;;4956634;29;20028;-78
2022/04/04 00:18:19;;;;;;;16.45;9.93;;;2.40;99.90;;;;;;4956832;29;20030;-78
2022/04/04 00:20:44;;;;;;;19.45;10.00;;;2.40;99.90;;;;;;4956295;28;20443;-78
2022/04/04 00:23:13;;;;;;;16.50;9.88;;;2.40;99.90;;;;;;4956724;28;20066;-78
2022/04/04 00:25:40;;;;;;;18.77;9.88;;;2.30;99.90;;;;;;4975476;28;20051;-77
2022/04/04 00:28:06;;;;;;;18.23;9.85;;;2.30;99.90;;;;;;4975635;28;20089;-80
2022/04/04 00:30:32;;;;;;;16.65;9.40;;;2.30;99.90;;;;;;4975576;28;20022;-80
2022/04/04 00:32:58;;;;;;;15.57;9.25;;;2.30;99.90;;;;;;4975593;28;20026;-77
2022/04/04 00:35:23;;;;;;;17.92;9.38;;;2.30;99.90;;;;;;4975636;28;20051;-80
2022/04/04 00:37:49;;;;;;;18.20;9.18;;;2.30;99.90;;;;;;4975352;28;20035;-77
2022/04/04 00:40:15;;;;;;;17.35;9.68;;;2.40;99.90;;;;;;4974627;28;20414;-77
2022/04/04 00:42:41;;;;;;;15.73;8.98;;;2.30;99.90;;;;;;4975093;28;20376;-79
2022/04/04 00:45:07;;;;;;;17.83;9.30;;;2.40;99.90;;;;;;4974942;28;20041;-78
2022/04/04 00:47:33;;;;;;;15.45;8.88;;;2.50;99.90;;;;;;4975770;28;20030;-80
2022/04/04 00:49:58;;;;;;;17.63;9.15;;;2.50;99.90;;;;;;4975148;28;20391;-77
2022/04/04 00:52:24;;;;;;;16.00;8.80;;;2.50;99.90;;;;;;4957946;28;20034;-78
2022/04/04 00:54:50;;;;;;;15.23;8.10;;;2.50;99.90;;;;;;4975078;28;20059;-77
2022/04/04 00:57:16;;;;;;;13.55;8.35;;;2.60;99.90;;;;;;4975065;28;20030;-78
2022/04/04 00:59:43;;;;;;;20.33;8.38;;;2.60;99.90;;;;;;4975265;28;20022;-78
2022/04/04 01:02:09;;;;;;;16.23;8.43;;;2.60;99.90;;;;;;4975014;28;20023;-78
2022/04/04 01:04:35;;;;;;;16.30;9.07;;;2.60;99.90;;;;;;4975029;28;20030;-78
2022/04/04 01:07:01;;;;;;;14.75;8.85;;;2.70;99.90;;;;;;4974214;28;20031;-78
2022/04/04 01:09:27;;;;;;;13.63;8.55;;;2.60;99.90;;;;;;4975026;28;20058;-78
2022/04/04 01:12:07;;;;;;;13.60;8.10;;;2.60;99.90;;;;;;4957482;28;20039;-78
2022/04/04 01:14:35;;;;;;;18.70;8.55;;;2.60;99.90;;;;;;4974212;28;20031;-78
2022/04/04 01:17:01;;;;;;;14.75;8.70;;;2.60;99.90;;;;;;4974271;28;20027;-79
2022/04/04 01:19:27;;;;;;;16.10;9.32;;;2.60;99.90;;;;;;4974968;28;20033;-80
2022/04/04 01:21:53;;;;;;;16.77;8.60;;;2.50;99.90;;;;;;4956778;28;20418;-80
2022/04/04 01:24:20;;;;;;;15.23;9.65;;;2.50;99.90;;;;;;4974620;28;20023;-78
2022/04/04 01:26:47;;;;;;;14.48;8.38;;;2.50;99.90;;;;;;4974903;28;20026;-80
2022/04/04 01:29:12;;;;;;;13.98;8.05;;;2.60;99.90;;;;;;4974314;28;20070;-77
2022/04/04 01:31:38;;;;;;;15.13;8.93;;;2.50;99.90;;;;;;4957362;28;20030;-80
2022/04/04 01:34:04;;;;;;;13.07;8.60;;;2.40;99.90;;;;;;4974272;28;20027;-80
2022/04/04 01:36:30;;;;;;;18.10;8.82;;;2.30;99.90;;;;;;4974169;28;20124;-80
2022/04/04 01:38:55;;;;;;;14.88;8.38;;;2.30;99.90;;;;;;4974563;28;20578;-79
2022/04/04 01:41:21;;;;;;;14.02;8.43;;;2.30;99.90;;;;;;4974371;28;20106;-77
2022/04/04 01:43:47;;;;;;;17.33;8.75;;;2.20;99.90;;;;;;4973974;28;20026;-80
2022/04/04 01:46:25;;;;;;;16.23;8.65;;;2.10;99.90;;;;;;4974306;28;20104;-80
2022/04/04 01:48:52;;;;;;;16.20;8.63;;;2.20;99.90;;;;;;4974171;28;20059;-80
2022/04/04 01:51:18;;;;;;;18.27;8.88;;;2.20;99.90;;;;;;4972852;28;20034;-80
2022/04/04 01:53:45;;;;;;;17.00;8.27;;;2.00;99.90;;;;;;4974062;28;20781;-80
2022/04/04 01:56:11;;;;;;;18.45;8.45;;;2.10;99.90;;;;;;4973904;28;20027;-77
2022/04/04 01:58:38;;;;;;;20.33;9.10;;;2.10;99.90;;;;;;4974296;28;20023;-77
2022/04/04 02:01:10;;;;;;;14.23;8.00;;;1.90;99.90;;;;;;4974364;28;20079;-78
2022/04/04 02:03:36;;;;;;;14.85;8.20;;;2.00;99.90;;;;;;4973947;28;20497;-80
2022/04/04 02:06:02;;;;;;;17.45;8.60;;;1.90;99.90;;;;;;4973906;28;20406;-80
2022/04/04 02:08:29;;;;;;;14.93;8.23;;;1.90;99.90;;;;;;4973824;28;20023;-80
2022/04/04 02:10:55;;;;;;;17.42;8.48;;;1.80;99.90;;;;;;4956553;28;20517;-77
2022/04/04 02:13:23;;;;;;;14.55;8.55;;;1.70;99.90;;;;;;4973439;28;20027;-80
2022/04/04 02:15:50;;;;;;;17.35;8.77;;;1.60;99.90;;;;;;4956457;28;20110;-78
2022/04/04 02:18:16;;;;;;;17.83;8.90;;;1.60;99.90;;;;;;4973746;28;20031;-77
2022/04/04 02:20:41;;;;;;;19.02;9.73;;;1.50;99.90;;;;;;4973431;28;20510;-78
2022/04/04 02:23:07;;;;;;;14.52;8.68;;;1.50;99.90;;;;;;4973965;28;20034;-78
2022/04/04 02:25:33;;;;;;;16.13;8.52;;;1.70;99.90;;;;;;4973731;28;20066;-77
2022/04/04 02:27:59;;;;;;;15.32;8.50;;;1.70;99.90;;;;;;4972918;28;20022;-80
2022/04/04 02:30:24;;;;;;;14.05;8.43;;;1.80;99.90;;;;;;4973553;28;20031;-79
2022/04/04 02:32:50;;;;;;;15.27;8.35;;;1.80;99.90;;;;;;4973520;28;20099;-80
2022/04/04 02:35:16;;;;;;;16.75;9.15;;;1.70;99.90;;;;;;4956089;28;20035;-80
2022/04/04 02:37:43;;;;;;;12.88;7.72;;;1.70;99.90;;;;;;4973676;28;20527;-79
2022/04/04 02:40:10;;;;;;;13.90;8.35;;;1.70;99.90;;;;;;4973722;28;20110;-80
2022/04/04 02:42:35;;;;;;;13.23;7.55;;;1.70;99.90;;;;;;4973603;28;20662;-80
2022/04/04 02:45:01;;;;;;;15.25;8.23;;;1.60;99.90;;;;;;4973417;28;20117;-80
2022/04/04 02:47:28;;;;;;;14.48;8.23;;;1.60;99.90;;;;;;4973414;28;20023;-80
2022/04/04 02:49:53;;;;;;;15.10;8.48;;;1.50;99.90;;;;;;4973435;28;20113;-80
2022/04/04 02:52:19;;;;;;;15.40;8.60;;;1.60;99.90;;;;;;4973377;28;20428;-80
2022/04/04 02:54:45;;;;;;;14.23;8.18;;;1.50;99.90;;;;;;4972638;28;20038;-80
2022/04/04 02:57:10;;;;;;;17.35;8.60;;;1.60;99.90;;;;;;4973629;28;20089;-80
2022/04/04 02:59:37;;;;;;;17.65;9.10;;;1.60;99.90;;;;;;4973217;28;20026;-80
2022/04/04 03:02:04;;;;;;;20.23;8.73;;;1.50;99.90;;;;;;4974250;28;20019;-78
2022/04/04 03:04:30;;;;;;;13.88;8.55;;;1.60;99.90;;;;;;4959842;28;20019;-80
2022/04/04 03:06:56;;;;;;;13.38;8.18;;;1.60;99.90;;;;;;4977149;28;20023;-80
2022/04/04 03:09:22;;;;;;;16.77;9.27;;;1.60;99.90;;;;;;4976829;28;20027;-79
2022/04/04 03:11:48;;;;;;;14.52;8.57;;;1.50;99.90;;;;;;4977185;28;20502;-80
2022/04/04 03:14:13;;;;;;;19.17;7.57;;;1.50;99.90;;;;;;4976642;28;20058;-80
2022/04/04 03:16:39;;;;;;;15.00;8.43;;;1.30;99.90;;;;;;4976355;28;20428;-80
2022/04/04 03:19:05;;;;;;;15.35;8.88;;;1.40;99.90;;;;;;4976863;28;20097;-80
2022/04/04 03:21:31;;;;;;;14.15;7.97;;;1.40;99.90;;;;;;4975874;28;20074;-80
2022/04/04 03:23:56;;;;;;;13.90;8.43;;;1.40;99.90;;;;;;4976787;28;20403;-79
2022/04/04 03:26:23;;;;;;;16.95;8.65;;;1.40;99.90;;;;;;4976680;28;20031;-80
2022/04/04 03:28:48;;;;;;;19.08;8.95;;;1.50;99.90;;;;;;4976675;28;20540;-80
2022/04/04 03:31:14;;;;;;;14.70;8.27;;;1.40;99.90;;;;;;4976612;28;20054;-78
2022/04/04 03:33:40;;;;;;;14.70;7.82;;;1.40;99.90;;;;;;4976580;28;20030;-79
2022/04/04 03:36:06;;;;;;;13.80;8.75;;;1.30;99.90;;;;;;4976806;28;20031;-78
2022/04/04 03:38:33;;;;;;;13.68;7.95;;;1.20;99.90;;;;;;4976868;28;20046;-78
2022/04/04 03:40:59;;;;;;;14.02;8.13;;;1.30;99.90;;;;;;4976631;28;20098;-77
2022/04/04 03:43:25;;;;;;;16.63;8.93;;;1.30;99.90;;;;;;4976035;28;20041;-77
2022/04/04 03:45:51;;;;;;;15.02;9.35;;;1.30;99.90;;;;;;4976329;28;20082;-78
2022/04/04 03:48:17;;;;;;;16.48;8.43;;;1.20;99.90;;;;;;4958999;28;20030;-78
2022/04/04 03:50:45;;;;;;;13.25;8.38;;;1.20;99.90;;;;;;4958669;28;20482;-80
2022/04/04 03:53:11;;;;;;;17.95;9.07;;;1.30;99.90;;;;;;4975889;28;20386;-78
2022/04/04 03:55:38;;;;;;;16.70;8.65;;;1.20;99.90;;;;;;4975677;28;20031;-80
2022/04/04 03:58:04;;;;;;;13.60;7.72;;;1.10;99.90;;;;;;4976164;28;20034;-80
2022/04/04 04:00:30;;;;;;;14.63;8.52;;;1.20;99.90;;;;;;4975776;28;20153;-79
2022/04/04 04:02:56;;;;;;;14.20;8.45;;;1.20;99.90;;;;;;4958806;28;20498;-80
2022/04/04 04:05:22;;;;;;;16.88;8.90;;;1.20;99.90;;;;;;4975831;28;20037;-80
2022/04/04 04:07:48;;;;;;;14.77;8.20;;;1.20;99.90;;;;;;4976240;28;20054;-79
2022/04/04 04:10:14;;;;;;;16.75;8.38;;;1.20;99.90;;;;;;4953106;29;20487;-80
2022/04/04 04:12:41;;;;;;;14.82;7.65;;;1.10;99.90;;;;;;4963706;28;20019;-81
2022/04/04 04:15:14;;;;;;;15.57;8.73;;;0.90;99.90;;;;;;4957269;28;20410;-80
2022/04/04 04:17:40;;;;;;;13.90;7.47;;;1.00;99.90;;;;;;4975692;28;20109;-81
2022/04/04 04:22:56;;;;;;;17.50;8.80;;;1.00;99.90;;;;;;4975831;28;20049;-81
2022/04/04 04:25:25;;;;;;;17.83;9.45;;;1.00;99.90;;;;;;4975679;28;20454;-81
2022/04/04 04:27:51;;;;;;;17.80;9.35;;;1.00;99.90;;;;;;4975631;28;20027;-80
2022/04/04 04:30:17;;;;;;;13.05;8.68;;;1.00;99.90;;;;;;4975605;28;20031;-80
2022/04/04 04:32:50;;;;;;;14.30;8.25;;;1.00;99.90;;;;;;4974653;28;20058;-80
2022/04/04 04:35:17;;;;;;;16.55;8.95;;;0.90;99.90;;;;;;4974940;28;20070;-79
2022/04/04 04:37:44;;;;;;;17.33;9.13;;;1.00;99.90;;;;;;4957576;28;20059;-80
2022/04/04 04:40:10;;;;;;;16.55;8.73;;;1.00;99.90;;;;;;4975710;28;20101;-80
2022/04/04 04:42:37;;;;;;;15.60;8.75;;;0.90;99.90;;;;;;4974124;28;20368;-80
2022/04/04 04:45:05;;;;;;;14.52;8.30;;;1.00;99.90;;;;;;4975032;28;20509;-79
2022/04/04 04:47:31;;;;;;;12.40;8.10;;;1.10;99.90;;;;;;4975421;28;20105;-79
2022/04/04 04:49:57;;;;;;;13.35;7.80;;;1.10;99.90;;;;;;4975257;28;20033;-78
2022/04/04 04:52:24;;;;;;;15.48;8.48;;;1.00;99.90;;;;;;4975192;28;20046;-78
2022/04/04 04:54:50;;;;;;;13.93;8.27;;;1.10;99.90;;;;;;4957569;28;20031;-77
2022/04/04 04:57:17;;;;;;;16.48;8.65;;;1.00;99.90;;;;;;4975049;28;20098;-78
2022/04/04 04:59:42;;;;;;;15.38;9.25;;;0.90;99.90;;;;;;4956565;28;20558;-82
2022/04/04 05:02:08;;;;;;;36.65;9.18;;;0.80;99.90;;;;;;4974576;28;20019;-79
2022/04/04 05:04:34;;;;;;;16.80;8.80;;;0.90;99.90;;;;;;4974181;28;20046;-79
2022/04/04 05:06:59;;;;;;;16.00;8.90;;;1.00;99.90;;;;;;4974530;28;20073;-80
2022/04/04 05:09:25;;;;;;;16.75;9.27;;;0.90;99.90;;;;;;4975002;28;20337;-78
2022/04/04 05:11:51;;;;;;;17.10;8.55;;;0.90;99.90;;;;;;4974872;28;20300;-78
2022/04/04 05:14:17;;;;;;;15.57;8.48;;;0.90;99.90;;;;;;4974118;28;20050;-79
2022/04/04 05:16:46;;;;;;;17.60;8.63;;;0.80;99.90;;;;;;4974385;28;20033;-74
2022/04/04 05:19:22;;;;;;;15.20;8.40;;;0.70;99.90;;;;;;4974466;28;20026;-78
2022/04/04 05:21:49;;;;;;;16.42;9.63;;;0.60;99.90;;;;;;4973543;28;20038;-79
2022/04/04 05:24:15;;;;;;;20.20;9.75;;;0.60;99.90;;;;;;4974432;28;20378;-79
2022/04/04 05:26:41;;;;;;;21.77;10.35;;;0.60;99.90;;;;;;4974268;28;20105;-78
2022/04/04 05:29:08;;;;;;;15.18;9.15;;;0.50;99.90;;;;;;4974271;28;20031;-78
2022/04/04 05:31:34;;;;;;;19.05;8.23;;;0.50;99.90;;;;;;4974077;28;20025;-79
2022/04/04 05:34:01;;;;;;;22.65;9.93;;;0.40;99.90;;;;;;4974016;28;20031;-79
2022/04/04 05:36:28;;;;;;;13.82;8.63;;;0.70;99.90;;;;;;4974380;28;20438;-78
2022/04/04 05:38:55;;;;;;;15.18;8.40;;;0.60;99.90;;;;;;4973894;28;20030;-78
2022/04/04 05:41:20;;;;;;;17.73;9.60;;;0.70;99.90;;;;;;4974191;28;20335;-79
2022/04/04 05:43:47;;;;;;;17.27;8.73;;;0.60;99.90;;;;;;4974057;28;20023;-78
2022/04/04 05:46:17;;;;;;;16.05;9.18;;;0.50;99.90;;;;;;4974473;28;20030;-79
2022/04/04 05:48:43;;;;;;;18.45;10.13;;;0.60;99.90;;;;;;4956851;28;20054;-79
2022/04/04 05:51:10;;;;;;;21.75;9.23;;;0.50;99.90;;;;;;4974223;28;20031;-79
2022/04/04 05:53:36;;;;;;;21.20;9.18;;;0.40;99.90;;;;;;4974472;28;20499;-78
2022/04/04 05:56:02;;;;;;;19.13;10.00;;;0.60;99.90;;;;;;4977200;28;20387;-81
2022/04/04 05:58:29;;;;;;;19.23;9.55;;;0.60;99.90;;;;;;4973767;28;20487;-80
2022/04/04 06:00:54;;;;;;;22.83;9.82;;;0.80;99.90;;;;;;4973219;28;20023;-80
2022/04/04 06:33:12;;;;;;;18.08;10.88;;;1.70;99.90;;;;;;5128130;23;20053;-75
2022/04/04 06:35:38;;;;;;;19.33;9.75;;;1.80;99.90;;;;;;4988464;28;20552;-76
2022/04/04 06:38:03;;;;;;;17.25;10.05;;;2.00;99.90;;;;;;4992754;28;20019;-76
2022/04/04 06:40:32;;;;;;;17.17;10.18;;;2.10;99.90;;;;;;4996730;28;20030;-77
2022/04/04 06:42:58;;;;;;;19.42;10.68;;;2.30;99.90;;;;;;4977693;28;20501;-76
2022/04/04 06:45:24;;;;;;;30.05;10.82;;;2.50;99.90;;;;;;4995360;28;20037;-78
2022/04/04 06:47:51;;;;;;;16.70;9.93;;;2.80;99.90;;;;;;4995332;28;20026;-79
2022/04/04 06:50:17;;;;;;;19.85;10.02;;;2.80;99.90;;;;;;4977101;28;20057;-76
2022/04/04 06:52:43;;;;;;;19.90;10.82;;;2.90;99.90;;;;;;4993875;28;20026;-76
2022/04/04 06:55:11;;;;;;;20.38;10.57;;;3.00;99.90;;;;;;4994011;28;20058;-78
2022/04/04 06:57:36;;;;;;;21.25;11.25;;;3.00;99.90;;;;;;4994951;28;20018;-78
2022/04/04 07:00:03;;;;;;;21.85;10.85;;;3.00;99.90;;;;;;4996367;28;20045;-78
2022/04/04 07:02:29;;;;;;;18.83;10.80;;;3.20;99.90;;;;;;4997913;28;20022;-78
2022/04/04 07:04:55;;;;;;;22.80;10.65;;;3.40;99.90;;;;;;4993669;28;20042;-79
2022/04/04 07:07:22;;;;;;;24.15;10.95;;;3.30;99.90;;;;;;4993276;28;20105;-77
2022/04/04 07:09:48;;;;;;;18.00;10.65;;;3.50;99.90;;;;;;4999813;28;20025;-79
2022/04/04 07:12:14;;;;;;;19.30;10.88;;;3.80;99.90;;;;;;4995467;28;20080;-79
2022/04/04 07:14:39;;;;;;;19.15;10.23;;;3.80;99.90;;;;;;4994137;28;20022;-82
2022/04/04 07:17:06;;;;;;;18.55;9.68;;;3.80;99.90;;;;;;4993328;28;20026;-76
2022/04/04 07:19:33;;;;;;;16.92;10.27;;;3.80;99.90;;;;;;4994224;28;20018;-76
2022/04/04 07:22:02;;;;;;;17.80;9.50;;;3.70;99.90;;;;;;4977727;28;20022;-76
2022/04/04 07:24:28;;;;;;;19.23;10.48;;;3.40;99.90;;;;;;4976903;28;20018;-76
2022/04/04 07:26:54;;;;;;;22.33;10.32;;;3.20;99.90;;;;;;4993355;28;20026;-76
2022/04/04 07:29:20;;;;;;;19.42;10.25;;;3.30;99.90;;;;;;4993585;28;20030;-77
2022/04/04 08:12:50;;;;;;;22.38;11.10;;;5.30;99.90;;;;;;5785062;23;20050;-77
2022/04/04 08:15:16;;;;;;;24.75;11.88;;;5.70;99.90;;;;;;4991658;28;20025;-78
2022/04/04 08:17:43;;;;;;;23.77;11.45;;;6.00;99.90;;;;;;4999937;28;20029;-77
2022/04/04 08:20:09;;;;;;;18.42;10.38;;;6.30;99.50;;;;;;4998137;28;20034;-77
2022/04/04 08:22:43;;;;;;;17.35;9.50;;;6.50;98.70;;;;;;4995388;28;20097;-77
2022/04/04 08:25:11;;;;;;;17.27;10.65;;;6.70;97.20;;;;;;4976674;28;20033;-78
2022/04/04 08:27:37;;;;;;;30.80;11.25;;;6.90;96.90;;;;;;4993518;28;20040;-77
2022/04/04 08:30:05;;;;;;;24.00;9.50;;;7.30;96.70;;;;;;4995649;28;20108;-77
2022/04/04 08:32:32;;;;;;;18.65;10.25;;;7.50;95.80;;;;;;4993232;28;20093;-77
2022/04/04 08:34:58;;;;;;;22.17;10.55;;;7.20;95.20;;;;;;4993369;28;20529;-77
2022/04/04 08:37:24;;;;;;;22.67;11.27;;;7.30;95.10;;;;;;4992494;28;20061;-78
2022/04/04 08:39:50;;;;;;;12.80;7.93;;;7.40;94.60;;;;;;4997928;28;20060;-77
2022/04/04 08:42:20;;;;;;;16.25;8.80;;;7.60;93.00;;;;;;4975579;28;20382;-77
2022/04/04 08:44:49;;;;;;;17.10;9.05;;;7.90;92.20;;;;;;4992421;28;20026;-78
2022/04/04 08:47:18;;;;;;;18.08;10.10;;;7.80;92.00;;;;;;4994628;28;20528;-77
2022/04/04 08:49:44;;;;;;;21.75;10.52;;;8.10;91.80;;;;;;4992231;28;20675;-77
2022/04/04 08:52:09;;;;;;;17.90;9.43;;;8.20;91.20;;;;;;4975811;28;20038;-78
2022/04/04 08:54:35;;;;;;;18.13;8.48;;;8.20;91.20;;;;;;4993006;28;20022;-78
2022/04/04 08:57:01;;;;;;;14.40;8.73;;;8.30;90.50;;;;;;4994523;28;20032;-78
2022/04/04 08:59:26;;;;;;;20.38;9.13;;;8.60;90.30;;;;;;4993426;28;20678;-78
2022/04/04 09:01:53;;;;;;;17.27;9.85;;;8.50;88.10;;;;;;4994344;28;20097;-78
2022/04/04 09:04:21;;;;;;;15.80;9.55;;;8.80;88.70;;;;;;4995414;28;20018;-78
2022/04/04 09:06:52;;;;;;;16.58;9.10;;;8.90;87.90;;;;;;4991406;28;20466;-78
2022/04/04 09:09:26;;;;;;;16.95;8.77;;;9.20;86.30;;;;;;4993433;28;20739;-78
2022/04/04 09:12:03;;;;;;;15.32;9.80;;;9.20;85.20;;;;;;4993444;28;20508;-78
2022/04/04 09:14:29;;;;;;;17.75;9.70;;;9.40;85.20;;;;;;4995828;28;20087;-78
2022/04/04 09:16:56;;;;;;;14.50;9.10;;;9.40;83.30;;;;;;4992670;28;20101;-78
2022/04/04 09:19:31;;;;;;;15.45;8.52;;;9.40;81.20;;;;;;4992725;28;20015;-78
2022/04/04 09:22:02;;;;;;;17.13;9.43;;;9.00;80.40;;;;;;4997540;28;20026;-78
2022/04/04 09:24:58;;;;;;;18.50;8.77;;;9.10;82.00;;;;;;4988812;28;20042;-78
2022/04/04 09:27:32;;;;;;;13.30;8.02;;;9.40;80.10;;;;;;4975757;28;20548;-78
2022/04/04 09:30:02;;;;;;;11.77;8.55;;;9.70;79.30;;;;;;4991915;28;20030;-78
2022/04/04 09:32:41;;;;;;;17.88;7.97;;;9.80;76.90;;;;;;4966197;28;20050;-78
2022/04/04 09:35:12;;;;;;;13.23;7.45;;;9.50;76.80;;;;;;4985403;28;20037;-78
2022/04/04 09:37:49;;;;;;;11.32;7.20;;;9.40;76.10;;;;;;5002917;28;20442;-78
2022/04/04 09:40:18;;;;;;;11.57;7.88;;;9.20;78.10;;;;;;4993728;28;20375;-78
2022/04/04 09:42:51;;;;;;;16.75;8.70;;;9.60;77.80;;;;;;4992891;28;20106;-78
2022/04/04 09:45:19;;;;;;;13.13;8.63;;;9.40;77.30;;;;;;4984067;28;20109;-78
2022/04/04 09:47:57;;;;;;;11.40;7.50;;;9.50;77.60;;;;;;4992687;28;20468;-78
2022/04/04 09:50:30;;;;;;;13.90;6.80;;;9.50;75.50;;;;;;4993424;28;20029;-78
2022/04/04 09:52:57;;;;;;;10.38;6.88;;;9.40;73.60;;;;;;4973737;28;20022;-78
2022/04/04 09:55:31;;;;;;;13.23;7.68;;;9.90;75.20;;;;;;4994086;28;20018;-78
2022/04/04 09:57:59;;;;;;;13.65;7.38;;;10.10;74.00;;;;;;5001165;28;20452;-77
2022/04/04 10:00:25;;;;;;;15.52;7.63;;;9.90;72.90;;;;;;5004827;28;20019;-76
2022/04/04 10:02:56;;;;;;;15.23;7.97;;;10.40;73.60;;;;;;4990836;28;20034;-77
2022/04/04 10:05:26;;;;;;;11.57;7.17;;;10.70;72.60;;;;;;4975715;28;20062;-77
2022/04/04 10:07:56;;;;;;;18.58;8.40;;;10.30;70.40;;;;;;4989089;28;20460;-77
2022/04/04 10:10:30;;;;;;;19.08;7.85;;;10.40;72.60;;;;;;4991604;28;20026;-77
2022/04/04 10:12:56;;;;;;;10.10;7.00;;;9.40;71.90;;;;;;4990336;28;20706;-80
2022/04/04 10:15:23;;;;;;;12.98;7.13;;;9.00;72.40;;;;;;4995631;28;20105;-77
2022/04/04 10:17:50;;;;;;;13.63;7.15;;;8.80;72.00;;;;;;4972802;28;20038;-78
2022/04/04 10:20:17;;;;;;;10.43;6.75;;;8.60;73.20;;;;;;4998534;28;20023;-78
2022/04/04 10:22:44;;;;;;;11.93;6.97;;;8.60;73.70;;;;;;4992667;28;20019;-76
2022/04/04 10:25:13;;;;;;;10.15;6.68;;;9.40;73.50;;;;;;4993711;28;20026;-78
2022/04/04 10:27:40;;;;;;;13.90;6.05;;;10.00;72.30;;;;;;4990326;28;20030;-76
2022/04/04 10:30:08;;;;;;;11.75;7.25;;;10.20;69.90;;;;;;4980572;28;20030;-76
2022/04/04 10:32:34;;;;;;;11.32;6.85;;;10.10;69.30;;;;;;4992454;28;20011;-77
2022/04/04 10:35:10;;;;;;;15.07;7.38;;;9.30;69.60;;;;;;4990856;28;20398;-76
2022/04/04 10:37:43;;;;;;;11.32;7.60;;;8.90;71.50;;;;;;4992201;28;20041;-77
2022/04/04 10:40:22;;;;;;;11.55;7.63;;;8.70;73.50;;;;;;4991801;28;20026;-76
2022/04/04 10:43:00;;;;;;;12.40;8.25;;;9.60;74.00;;;;;;4992742;28;20022;-77
2022/04/04 10:45:28;;;;;;;9.38;6.13;;;10.50;71.90;;;;;;4992444;28;20026;-76
2022/04/04 10:48:03;;;;;;;11.63;7.60;;;10.80;67.20;;;;;;4992658;28;20116;-77
2022/04/04 10:50:30;;;;;;;12.73;7.45;;;10.20;67.70;;;;;;4993191;28;20164;-77
2022/04/04 10:53:00;;;;;;;11.45;6.40;;;10.20;68.40;;;;;;4992556;28;20425;-77
2022/04/04 10:55:38;;;;;;;12.57;6.40;;;10.60;67.10;;;;;;4991879;28;20486;-77
2022/04/04 10:58:10;;;;;;;9.65;6.25;;;10.00;67.40;;;;;;4992603;28;20030;-77
2022/04/04 11:01:00;;;;;;;10.48;7.13;;;9.70;69.20;;;;;;4987153;28;20039;-77
2022/04/04 11:03:36;;;;;;;13.25;7.35;;;9.30;69.20;;;;;;4971653;28;20061;-77
2022/04/04 11:09:18;;;;;;;10.15;6.78;;;8.80;71.70;;;;;;4973611;28;20127;-76
2022/04/04 11:11:44;;;;;;;11.57;7.63;;;8.70;71.60;;;;;;4972902;28;20022;-77
2022/04/04 11:14:31;;;;;;;14.20;7.57;;;8.60;71.40;;;;;;4983309;28;20045;-77
2022/04/04 11:17:06;;;;;;;11.00;6.68;;;8.40;73.30;;;;;;4995383;28;20040;-77
2022/04/04 11:19:47;;;;;;;10.32;6.70;;;8.50;71.30;;;;;;4997748;28;20031;-76
2022/04/04 11:22:24;;;;;;;12.75;6.47;;;8.60;70.60;;;;;;4974391;28;20026;-77
2022/04/04 11:24:53;;;;;;;10.15;6.45;;;8.50;71.50;;;;;;4995438;28;20056;-77
2022/04/04 16:02:51;;;;;;;9.73;5.82;;;11.10;59.20;;;;;;5477313;23;20054;-78
2022/04/04 16:05:17;;;;;;;9.35;5.45;;;11.10;59.20;;;;;;4957921;28;20193;-76
2022/04/04 16:07:42;;;;;;;11.38;5.88;;;11.10;58.90;;;;;;4954846;29;20110;-77
2022/04/04 16:10:08;;;;;;;8.40;5.47;;;10.90;59.50;;;;;;4954931;28;20134;-76
2022/04/04 16:12:36;;;;;;;8.25;5.65;;;10.90;59.40;;;;;;4956024;28;20023;-76
2022/04/04 16:15:02;;;;;;;6.13;4.85;;;10.90;59.50;;;;;;4955782;28;20086;-77
2022/04/04 16:17:27;;;;;;;9.63;5.78;;;11.00;59.50;;;;;;4958933;28;20027;-77
2022/04/04 16:19:53;;;;;;;10.73;4.82;;;10.90;60.80;;;;;;4959571;28;20114;-79
2022/04/04 16:22:19;;;;;;;12.70;5.85;;;10.90;60.90;;;;;;4956140;28;20065;-77
2022/04/04 16:24:44;;;;;;;8.27;5.10;;;10.90;61.10;;;;;;4954569;29;20046;-78
2022/04/04 16:27:10;;;;;;;9.15;5.70;;;10.80;60.80;;;;;;4956531;28;20363;-78
2022/04/04 16:29:36;;;;;;;8.10;4.45;;;10.90;61.50;;;;;;4954294;29;20118;-78
2022/04/04 16:32:02;;;;;;;12.02;5.97;;;10.80;61.30;;;;;;4948908;28;20026;-75
2022/04/04 16:34:28;;;;;;;8.07;4.63;;;10.80;60.10;;;;;;4954006;29;20019;-77
2022/04/04 16:36:54;;;;;;;6.90;4.65;;;10.80;60.50;;;;;;4955599;28;20026;-78
2022/04/04 16:39:20;;;;;;;11.10;5.13;;;10.80;59.80;;;;;;4956182;28;20033;-75
2022/04/04 16:41:46;;;;;;;9.05;5.32;;;10.60;60.80;;;;;;4955644;28;20015;-79
2022/04/04 16:44:12;;;;;;;11.52;5.35;;;10.60;60.30;;;;;;4962712;28;20023;-76
2022/04/04 16:46:39;;;;;;;9.75;4.95;;;10.60;61.10;;;;;;4960106;28;20023;-76
2022/04/04 16:49:04;;;;;;;98.00;9.73;;;10.50;59.90;;;;;;4955559;29;20027;-75
2022/04/04 16:51:31;;;;;;;19.67;5.68;;;10.50;60.40;;;;;;4956443;28;20037;-77
2022/04/04 16:53:57;;;;;;;26.83;6.60;;;10.60;59.90;;;;;;4961872;28;20486;-76
2022/04/04 16:56:25;;;;;;;32.28;6.70;;;10.50;59.80;;;;;;4968407;28;20075;-76
2022/04/04 16:58:50;;;;;;;14.35;5.65;;;10.40;60.30;;;;;;4956088;28;20024;-76
2022/04/04 17:01:16;;;;;;;16.88;6.60;;;10.40;60.10;;;;;;4956295;28;20026;-77
2022/04/04 17:03:42;;;;;;;16.65;6.22;;;10.20;60.70;;;;;;4970943;28;20047;-76
2022/04/04 17:06:07;;;;;;;9.52;5.07;;;10.10;60.90;;;;;;4974452;28;20022;-76
2022/04/04 17:08:33;;;;;;;13.40;5.90;;;10.20;60.90;;;;;;4974521;28;20027;-76
2022/04/04 17:10:59;;;;;;;10.43;4.97;;;10.20;61.30;;;;;;4973911;28;20027;-76
2022/04/04 17:13:25;;;;;;;11.27;5.72;;;10.20;62.00;;;;;;4974852;28;20061;-76
2022/04/04 17:15:51;;;;;;;8.80;5.00;;;10.00;62.10;;;;;;4973775;28;20027;-76
2022/04/04 17:18:17;;;;;;;7.80;4.95;;;9.90;63.00;;;;;;4973881;28;20019;-76
2022/04/04 17:20:43;;;;;;;10.52;5.47;;;9.90;62.50;;;;;;4973488;28;20374;-76
2022/04/04 17:23:12;;;;;;;8.23;4.85;;;9.80;63.30;;;;;;4973946;28;20110;-75
2022/04/04 17:25:38;;;;;;;10.10;4.90;;;9.80;63.20;;;;;;4974072;28;20015;-76
2022/04/04 17:28:04;;;;;;;13.88;6.35;;;9.80;63.80;;;;;;4972738;28;20031;-76
2022/04/04 17:30:30;;;;;;;7.57;4.88;;;9.70;63.30;;;;;;4974207;28;20027;-77
2022/04/04 17:32:56;;;;;;;9.27;5.72;;;9.70;63.90;;;;;;4974015;28;20062;-77
2022/04/04 17:35:22;;;;;;;9.13;5.07;;;9.60;63.90;;;;;;4973723;28;20097;-77
2022/04/04 17:37:48;;;;;;;9.35;5.10;;;9.60;64.00;;;;;;4974658;28;20026;-76
2022/04/04 17:40:16;;;;;;;11.02;5.45;;;9.60;64.00;;;;;;4973828;28;20074;-76
2022/04/04 17:42:41;;;;;;;9.02;5.05;;;9.50;63.30;;;;;;4956791;28;20126;-76
2022/04/04 17:45:08;;;;;;;8.50;4.80;;;9.40;64.40;;;;;;4973499;28;20136;-77
2022/04/04 17:47:35;;;;;;;7.60;4.50;;;9.40;64.90;;;;;;4973543;28;20406;-78
2022/04/04 17:50:03;;;;;;;9.30;5.25;;;9.40;65.30;;;;;;4973211;28;20046;-76
2022/04/04 17:52:29;;;;;;;10.02;4.82;;;9.30;65.80;;;;;;4973715;28;20033;-78
2022/04/04 17:54:55;;;;;;;11.02;6.18;;;9.30;67.70;;;;;;4973431;28;20102;-77
2022/04/04 17:57:20;;;;;;;9.05;5.13;;;9.20;69.20;;;;;;4973714;28;20077;-77
2022/04/04 17:59:46;;;;;;;10.20;5.28;;;9.00;68.20;;;;;;4973328;28;20054;-76
2022/04/04 18:02:12;;;;;;;11.85;4.80;;;9.00;67.80;;;;;;4972363;28;20125;-77
2022/04/04 18:04:41;;;;;;;13.00;5.95;;;9.00;68.20;;;;;;4973173;28;20521;-76
2022/04/04 18:07:06;;;;;;;9.63;5.22;;;9.00;68.20;;;;;;4955395;28;20375;-76
2022/04/04 18:09:32;;;;;;;12.93;5.68;;;8.90;67.90;;;;;;4972882;28;20034;-77
2022/04/04 18:12:00;;;;;;;9.70;5.88;;;8.90;69.70;;;;;;4972780;28;20466;-76
2022/04/04 18:14:26;;;;;;;12.82;5.38;;;8.80;72.30;;;;;;4972238;28;20021;-76
2022/04/04 18:16:53;;;;;;;10.02;5.32;;;8.70;74.30;;;;;;4972935;28;20466;-75
2022/04/04 18:19:20;;;;;;;14.02;5.88;;;8.50;74.60;;;;;;4972195;28;20027;-84
2022/04/04 18:21:48;;;;;;;11.10;5.97;;;8.30;76.40;;;;;;4973164;28;20015;-76
2022/04/04 18:24:18;;;;;;;12.52;6.15;;;8.30;77.40;;;;;;4972766;28;20373;-79
2022/04/04 18:26:44;;;;;;;10.57;5.72;;;8.20;78.40;;;;;;4973021;28;20121;-77
2022/04/04 18:29:10;;;;;;;12.88;6.13;;;8.10;79.70;;;;;;4961896;28;20038;-74
2022/04/04 18:31:37;;;;;;;11.27;6.28;;;7.90;79.60;;;;;;4973092;28;20806;-80
2022/04/04 18:34:03;;;;;;;13.05;6.43;;;7.90;81.00;;;;;;4972143;28;20027;-80
2022/04/04 18:36:29;;;;;;;18.20;9.35;;;7.80;82.20;;;;;;4973440;28;20117;-79
2022/04/04 18:38:58;;;;;;;18.27;9.25;;;7.70;81.60;;;;;;4972987;28;20478;-76